sensor_id;sensor_type;location;lat;lon;timestamp;temperature;humidity
6843;DHT22;3460;52.028;8.916;2024-01-16T00:02:19;1.20;99.90
6843;DHT22;3460;52.028;8.916;2024-01-16T00:04:45;1.20;99.90
6843;DHT22;3460;52.028;8.916;2024-01-16T00:07:12;1.10;99.90
6843;DHT22;3460;52.028;8.916;2024-01-16T00:09:39;1.00;99.90
6843;DHT22;3460;52.028;8.916;2024-01-16T00:12:07;1.00;99.90
6843;DHT22;3460;52.028;8.916;2024-01-16T00:14:35;1.00;99.90
6843;DHT22;3460;52.028;8.916;2024-01-16T00:17:03;1.00;99.90
6843;DHT22;3460;52.028;8.916;2024-01-16T00:19:31;1.00;99.90
6843;DHT22;3460;52.028;8.916;2024-01-16T00:21:58;1.00;99.90
6843;DHT22;3460;52.028;8.916;2024-01-16T00:24:26;1.10;99.90
6843;DHT22;3460;52.028;8.916;2024-01-16T00:26:52;1.10;99.90
6843;DHT22;3460;52.028;8.916;2024-01-16T00:29:19;1.00;99.90
6843;DHT22;3460;52.028;8.916;2024-01-16T00:31:46;1.10;99.90
6843;DHT22;3460;52.028;8.916;2024-01-16T00:34:13;1.10;99.90
6843;DHT22;3460;52.028;8.916;2024-01-16T00:36:41;1.10;99.90
6843;DHT22;3460;52.028;8.916;2024-01-16T00:39:08;1.00;99.90
6843;DHT22;3460;52.028;8.916;2024-01-16T00:41:35;1.10;99.90
6843;DHT22;3460;52.028;8.916;2024-01-16T00:44:02;1.10;99.90
6843;DHT22;3460;52.028;8.916;2024-01-16T00:46:29;1.10;99.90
6843;DHT22;3460;52.028;8.916;2024-01-16T00:48:56;1.20;99.90
6843;DHT22;3460;52.028;8.916;2024-01-16T00:51:22;1.20;99.90
6843;DHT22;3460;52.028;8.916;2024-01-16T00:53:51;1.20;99.90
6843;DHT22;3460;52.028;8.916;2024-01-16T00:56:17;1.20;99.90
6843;DHT22;3460;52.028;8.916;2024-01-16T00:58:44;1.20;99.90
6843;DHT22;3460;52.028;8.916;2024-01-16T01:01:11;1.20;99.90
6843;DHT22;3460;52.028;8.916;2024-01-16T01:03:38;1.20;99.90
6843;DHT22;3460;52.028;8.916;2024-01-16T01:06:05;1.20;99.90
6843;DHT22;3460;52.028;8.916;2024-01-16T01:08:32;1.10;99.90
6843;DHT22;3460;52.028;8.916;2024-01-16T01:11:00;1.10;99.90
6843;DHT22;3460;52.028;8.916;2024-01-16T01:13:28;1.10;99.90
6843;DHT22;3460;52.028;8.916;2024-01-16T01:15:55;1.10;99.90
6843;DHT22;3460;52.028;8.916;2024-01-16T01:18:22;1.20;99.90
6843;DHT22;3460;52.028;8.916;2024-01-16T01:20:49;1.10;99.90
6843;DHT22;3460;52.028;8.916;2024-01-16T01:23:15;1.10;99.90
6843;DHT22;3460;52.028;8.916;2024-01-16T01:25:42;1.10;99.90
6843;DHT22;3460;52.028;8.916;2024-01-16T01:28:10;1.10;99.90
6843;DHT22;3460;52.028;8.916;2024-01-16T01:30:37;1.10;99.90
6843;DHT22;3460;52.028;8.916;2024-01-16T01:33:04;1.10;99.90
6843;DHT22;3460;52.028;8.916;2024-01-16T01:35:31;1.10;99.90
6843;DHT22;3460;52.028;8.916;2024-01-16T01:37:58;1.10;99.90
6843;DHT22;3460;52.028;8.916;2024-01-16T01:40:25;1.10;99.90
6843;DHT22;3460;52.028;8.916;2024-01-16T01:42:51;1.10;99.90
6843;DHT22;3460;52.028;8.916;2024-01-16T01:45:20;1.00;99.90
6843;DHT22;3460;52.028;8.916;2024-01-16T01:47:47;1.10;99.90
6843;DHT22;3460;52.028;8.916;2024-01-16T01:50:14;1.00;99.90
6843;DHT22;3460;52.028;8.916;2024-01-16T01:52:41;1.10;99.90
6843;DHT22;3460;52.028;8.916;2024-01-16T01:55:11;1.10;99.90
6843;DHT22;3460;52.028;8.916;2024-01-16T01:57:39;1.10;99.90
6843;DHT22;3460;52.028;8.916;2024-01-16T02:00:08;1.00;99.90
6843;DHT22;3460;52.028;8.916;2024-01-16T02:02:37;1.00;99.90
6843;DHT22;3460;52.028;8.916;2024-01-16T02:05:04;1.00;99.90
6843;DHT22;3460;52.028;8.916;2024-01-16T02:07:33;1.00;99.90
6843;DHT22;3460;52.028;8.916;2024-01-16T02:10:01;1.10;99.90
6843;DHT22;3460;52.028;8.916;2024-01-16T02:12:28;1.00;99.90
6843;DHT22;3460;52.028;8.916;2024-01-16T02:14:55;1.00;99.90
6843;DHT22;3460;52.028;8.916;2024-01-16T02:17:22;1.00;99.90
6843;DHT22;3460;52.028;8.916;2024-01-16T02:19:50;1.00;99.90
6843;DHT22;3460;52.028;8.916;2024-01-16T02:22:20;1.00;99.90
6843;DHT22;3460;52.028;8.916;2024-01-16T02:24:51;0.90;99.90
6843;DHT22;3460;52.028;8.916;2024-01-16T02:27:17;0.90;99.90
6843;DHT22;3460;52.028;8.916;2024-01-16T02:29:44;0.90;99.90
6843;DHT22;3460;52.028;8.916;2024-01-16T02:32:12;1.00;99.90
6843;DHT22;3460;52.028;8.916;2024-01-16T02:34:39;1.00;99.90
6843;DHT22;3460;52.028;8.916;2024-01-16T02:37:06;0.90;99.90
6843;DHT22;3460;52.028;8.916;2024-01-16T02:39:33;0.90;99.90
6843;DHT22;3460;52.028;8.916;2024-01-16T02:42:01;0.90;99.90
6843;DHT22;3460;52.028;8.916;2024-01-16T02:44:28;1.00;99.90
6843;DHT22;3460;52.028;8.916;2024-01-16T02:46:55;1.00;99.90
6843;DHT22;3460;52.028;8.916;2024-01-16T02:49:21;1.10;99.90
6843;DHT22;3460;52.028;8.916;2024-01-16T02:51:51;1.10;99.90
6843;DHT22;3460;52.028;8.916;2024-01-16T02:54:18;1.10;99.90
6843;DHT22;3460;52.028;8.916;2024-01-16T02:56:45;1.10;99.90
6843;DHT22;3460;52.028;8.916;2024-01-16T02:59:13;1.10;99.90
6843;DHT22;3460;52.028;8.916;2024-01-16T03:01:39;1.10;99.90
6843;DHT22;3460;52.028;8.916;2024-01-16T03:04:06;1.10;99.90
6843;DHT22;3460;52.028;8.916;2024-01-16T03:06:33;1.10;99.90
6843;DHT22;3460;52.028;8.916;2024-01-16T03:09:00;1.10;99.90
6843;DHT22;3460;52.028;8.916;2024-01-16T03:11:26;1.10;99.90
6843;DHT22;3460;52.028;8.916;2024-01-16T03:13:53;1.10;99.90
6843;DHT22;3460;52.028;8.916;2024-01-16T03:16:21;1.10;99.90
6843;DHT22;3460;52.028;8.916;2024-01-16T03:18:48;1.00;99.90
6843;DHT22;3460;52.028;8.916;2024-01-16T03:21:15;1.00;99.90
6843;DHT22;3460;52.028;8.916;2024-01-16T03:23:42;1.00;99.90
6843;DHT22;3460;52.028;8.916;2024-01-16T03:26:12;1.00;99.90
6843;DHT22;3460;52.028;8.916;2024-01-16T03:28:39;1.10;99.90
6843;DHT22;3460;52.028;8.916;2024-01-16T03:31:06;1.10;99.90
6843;DHT22;3460;52.028;8.916;2024-01-16T03:33:34;1.00;99.90
6843;DHT22;3460;52.028;8.916;2024-01-16T03:36:07;1.00;99.90
6843;DHT22;3460;52.028;8.916;2024-01-16T03:38:34;1.10;99.90
6843;DHT22;3460;52.028;8.916;2024-01-16T03:41:02;1.00;99.90
6843;DHT22;3460;52.028;8.916;2024-01-16T03:43:29;1.10;99.90
6843;DHT22;3460;52.028;8.916;2024-01-16T03:45:57;1.00;99.90
6843;DHT22;3460;52.028;8.916;2024-01-16T03:48:23;1.00;99.90
6843;DHT22;3460;52.028;8.916;2024-01-16T03:50:51;1.00;99.90
6843;DHT22;3460;52.028;8.916;2024-01-16T03:53:20;1.00;99.90
6843;DHT22;3460;52.028;8.916;2024-01-16T03:55:47;1.10;99.90
6843;DHT22;3460;52.028;8.916;2024-01-16T03:58:14;1.00;99.90
6843;DHT22;3460;52.028;8.916;2024-01-16T04:00:40;0.90;99.90
6843;DHT22;3460;52.028;8.916;2024-01-16T04:03:07;0.90;99.90
6843;DHT22;3460;52.028;8.916;2024-01-16T04:05:34;0.90;99.90
6843;DHT22;3460;52.028;8.916;2024-01-16T04:08:03;1.00;99.90
6843;DHT22;3460;52.028;8.916;2024-01-16T04:10:30;1.00;99.90
6843;DHT22;3460;52.028;8.916;2024-01-16T04:13:00;1.00;99.90
6843;DHT22;3460;52.028;8.916;2024-01-16T04:15:27;1.00;99.90
6843;DHT22;3460;52.028;8.916;2024-01-16T04:17:54;0.90;99.90
6843;DHT22;3460;52.028;8.916;2024-01-16T04:20:20;0.90;99.90
6843;DHT22;3460;52.028;8.916;2024-01-16T04:22:48;0.80;99.90
6843;DHT22;3460;52.028;8.916;2024-01-16T04:25:17;0.80;99.90
6843;DHT22;3460;52.028;8.916;2024-01-16T04:27:43;0.80;99.90
6843;DHT22;3460;52.028;8.916;2024-01-16T04:30:11;0.80;99.90
6843;DHT22;3460;52.028;8.916;2024-01-16T04:32:38;0.90;99.90
6843;DHT22;3460;52.028;8.916;2024-01-16T04:35:05;0.80;99.90
6843;DHT22;3460;52.028;8.916;2024-01-16T04:37:31;0.80;99.90
6843;DHT22;3460;52.028;8.916;2024-01-16T04:39:58;0.80;99.90
6843;DHT22;3460;52.028;8.916;2024-01-16T04:42:27;0.80;99.90
6843;DHT22;3460;52.028;8.916;2024-01-16T04:44:54;0.80;99.90
6843;DHT22;3460;52.028;8.916;2024-01-16T04:47:20;0.90;99.90
6843;DHT22;3460;52.028;8.916;2024-01-16T04:49:47;0.90;99.90
6843;DHT22;3460;52.028;8.916;2024-01-16T04:52:14;0.90;99.90
6843;DHT22;3460;52.028;8.916;2024-01-16T04:54:41;0.90;99.90
6843;DHT22;3460;52.028;8.916;2024-01-16T04:57:07;0.90;99.90
6843;DHT22;3460;52.028;8.916;2024-01-16T04:59:36;0.90;99.90
6843;DHT22;3460;52.028;8.916;2024-01-16T05:02:02;0.90;99.90
6843;DHT22;3460;52.028;8.916;2024-01-16T05:04:29;0.90;99.90
6843;DHT22;3460;52.028;8.916;2024-01-16T05:06:56;0.90;99.90
6843;DHT22;3460;52.028;8.916;2024-01-16T05:09:23;0.90;99.90
6843;DHT22;3460;52.028;8.916;2024-01-16T05:11:49;0.90;99.90
6843;DHT22;3460;52.028;8.916;2024-01-16T05:14:16;0.90;99.90
6843;DHT22;3460;52.028;8.916;2024-01-16T05:16:44;1.00;99.90
6843;DHT22;3460;52.028;8.916;2024-01-16T05:19:11;1.00;99.90
6843;DHT22;3460;52.028;8.916;2024-01-16T05:21:40;1.00;99.90
6843;DHT22;3460;52.028;8.916;2024-01-16T05:24:07;0.90;99.90
6843;DHT22;3460;52.028;8.916;2024-01-16T05:26:34;0.80;99.90
6843;DHT22;3460;52.028;8.916;2024-01-16T05:29:01;0.80;99.90
6843;DHT22;3460;52.028;8.916;2024-01-16T05:31:28;0.90;99.90
6843;DHT22;3460;52.028;8.916;2024-01-16T05:33:56;0.80;99.90
6843;DHT22;3460;52.028;8.916;2024-01-16T05:36:23;0.80;99.90
6843;DHT22;3460;52.028;8.916;2024-01-16T05:38:50;0.90;99.90
6843;DHT22;3460;52.028;8.916;2024-01-16T05:41:18;0.90;99.90
6843;DHT22;3460;52.028;8.916;2024-01-16T05:43:45;0.80;99.90
6843;DHT22;3460;52.028;8.916;2024-01-16T05:46:13;0.80;99.90
6843;DHT22;3460;52.028;8.916;2024-01-16T05:48:39;0.70;99.90
6843;DHT22;3460;52.028;8.916;2024-01-16T05:51:07;0.70;99.90
6843;DHT22;3460;52.028;8.916;2024-01-16T05:53:34;0.70;99.90
6843;DHT22;3460;52.028;8.916;2024-01-16T05:56:01;0.70;99.90
6843;DHT22;3460;52.028;8.916;2024-01-16T05:58:28;0.80;99.90
6843;DHT22;3460;52.028;8.916;2024-01-16T06:00:54;0.80;99.90
6843;DHT22;3460;52.028;8.916;2024-01-16T06:03:21;0.70;99.90
6843;DHT22;3460;52.028;8.916;2024-01-16T06:05:48;0.80;99.90
6843;DHT22;3460;52.028;8.916;2024-01-16T06:08:16;0.70;99.90
6843;DHT22;3460;52.028;8.916;2024-01-16T06:10:45;0.80;99.90
6843;DHT22;3460;52.028;8.916;2024-01-16T06:13:12;0.80;99.90
6843;DHT22;3460;52.028;8.916;2024-01-16T06:15:39;0.80;99.90
6843;DHT22;3460;52.028;8.916;2024-01-16T06:18:06;0.80;99.90
6843;DHT22;3460;52.028;8.916;2024-01-16T06:20:33;0.80;99.90
6843;DHT22;3460;52.028;8.916;2024-01-16T06:23:00;0.80;99.90
6843;DHT22;3460;52.028;8.916;2024-01-16T06:25:28;0.90;99.90
6843;DHT22;3460;52.028;8.916;2024-01-16T06:27:55;0.90;99.90
6843;DHT22;3460;52.028;8.916;2024-01-16T06:30:22;1.00;99.90
6843;DHT22;3460;52.028;8.916;2024-01-16T06:32:49;0.90;99.90
6843;DHT22;3460;52.028;8.916;2024-01-16T06:35:16;0.80;99.90
6843;DHT22;3460;52.028;8.916;2024-01-16T06:37:43;0.90;99.90
6843;DHT22;3460;52.028;8.916;2024-01-16T06:40:10;0.90;99.90
6843;DHT22;3460;52.028;8.916;2024-01-16T06:42:39;0.90;99.90
6843;DHT22;3460;52.028;8.916;2024-01-16T06:45:06;0.80;99.90
6843;DHT22;3460;52.028;8.916;2024-01-16T06:47:33;0.90;99.90
6843;DHT22;3460;52.028;8.916;2024-01-16T06:50:00;0.90;99.90
6843;DHT22;3460;52.028;8.916;2024-01-16T06:52:27;0.90;99.90
6843;DHT22;3460;52.028;8.916;2024-01-16T06:54:53;0.90;99.90
6843;DHT22;3460;52.028;8.916;2024-01-16T06:57:20;1.00;99.90
6843;DHT22;3460;52.028;8.916;2024-01-16T06:59:48;0.90;99.90
6843;DHT22;3460;52.028;8.916;2024-01-16T07:02:15;0.80;99.90
6843;DHT22;3460;52.028;8.916;2024-01-16T07:04:42;0.80;99.90
6843;DHT22;3460;52.028;8.916;2024-01-16T07:07:09;0.90;99.90
6843;DHT22;3460;52.028;8.916;2024-01-16T07:09:35;0.90;99.90
6843;DHT22;3460;52.028;8.916;2024-01-16T07:12:03;0.90;99.90
6843;DHT22;3460;52.028;8.916;2024-01-16T07:14:30;0.90;99.90
6843;DHT22;3460;52.028;8.916;2024-01-16T07:16:58;0.90;99.90
6843;DHT22;3460;52.028;8.916;2024-01-16T07:19:25;0.90;99.90
6843;DHT22;3460;52.028;8.916;2024-01-16T07:21:52;0.90;99.90
6843;DHT22;3460;52.028;8.916;2024-01-16T07:24:19;0.90;99.90
6843;DHT22;3460;52.028;8.916;2024-01-16T07:26:45;0.90;99.90
6843;DHT22;3460;52.028;8.916;2024-01-16T07:29:12;0.90;99.90
6843;DHT22;3460;52.028;8.916;2024-01-16T07:31:39;0.90;99.90
6843;DHT22;3460;52.028;8.916;2024-01-16T07:34:08;0.90;99.90
6843;DHT22;3460;52.028;8.916;2024-01-16T07:36:34;0.90;99.90
6843;DHT22;3460;52.028;8.916;2024-01-16T07:39:01;1.00;99.90
6843;DHT22;3460;52.028;8.916;2024-01-16T07:41:28;1.00;99.90
6843;DHT22;3460;52.028;8.916;2024-01-16T07:43:55;0.90;99.90
6843;DHT22;3460;52.028;8.916;2024-01-16T07:46:21;0.90;99.90
6843;DHT22;3460;52.028;8.916;2024-01-16T07:48:49;1.00;99.90
6843;DHT22;3460;52.028;8.916;2024-01-16T07:51:17;1.00;99.90
6843;DHT22;3460;52.028;8.916;2024-01-16T07:53:43;0.90;99.90
6843;DHT22;3460;52.028;8.916;2024-01-16T07:56:10;0.90;99.90
6843;DHT22;3460;52.028;8.916;2024-01-16T07:58:37;0.90;99.90
6843;DHT22;3460;52.028;8.916;2024-01-16T08:01:04;1.00;99.90
6843;DHT22;3460;52.028;8.916;2024-01-16T08:03:31;1.00;99.90
6843;DHT22;3460;52.028;8.916;2024-01-16T08:05:58;1.00;99.90
6843;DHT22;3460;52.028;8.916;2024-01-16T08:08:26;1.00;99.90
6843;DHT22;3460;52.028;8.916;2024-01-16T08:10:53;1.00;99.90
6843;DHT22;3460;52.028;8.916;2024-01-16T08:13:21;1.00;99.90
6843;DHT22;3460;52.028;8.916;2024-01-16T08:15:48;1.10;99.90
6843;DHT22;3460;52.028;8.916;2024-01-16T08:18:15;1.00;99.90
6843;DHT22;3460;52.028;8.916;2024-01-16T08:20:43;1.10;99.90
6843;DHT22;3460;52.028;8.916;2024-01-16T08:23:09;1.00;99.90
6843;DHT22;3460;52.028;8.916;2024-01-16T08:25:38;1.10;99.90
6843;DHT22;3460;52.028;8.916;2024-01-16T08:28:05;1.10;99.90
6843;DHT22;3460;52.028;8.916;2024-01-16T08:30:31;1.10;99.90
6843;DHT22;3460;52.028;8.916;2024-01-16T08:32:58;1.20;99.90
6843;DHT22;3460;52.028;8.916;2024-01-16T08:35:25;1.20;99.90
6843;DHT22;3460;52.028;8.916;2024-01-16T08:37:51;1.20;99.90
6843;DHT22;3460;52.028;8.916;2024-01-16T08:40:18;1.20;99.90
6843;DHT22;3460;52.028;8.916;2024-01-16T08:42:46;1.20;99.90
6843;DHT22;3460;52.028;8.916;2024-01-16T08:45:17;1.20;99.90
6843;DHT22;3460;52.028;8.916;2024-01-16T08:47:43;1.30;99.90
6843;DHT22;3460;52.028;8.916;2024-01-16T08:50:10;1.20;99.90
6843;DHT22;3460;52.028;8.916;2024-01-16T08:52:37;1.20;99.90
6843;DHT22;3460;52.028;8.916;2024-01-16T08:55:04;1.20;99.90
6843;DHT22;3460;52.028;8.916;2024-01-16T08:57:31;1.20;99.90
6843;DHT22;3460;52.028;8.916;2024-01-16T08:59:59;1.20;99.90
6843;DHT22;3460;52.028;8.916;2024-01-16T09:02:28;1.20;99.90
6843;DHT22;3460;52.028;8.916;2024-01-16T09:04:56;1.40;99.90
6843;DHT22;3460;52.028;8.916;2024-01-16T09:07:24;1.40;99.90
6843;DHT22;3460;52.028;8.916;2024-01-16T09:09:50;1.30;99.90
6843;DHT22;3460;52.028;8.916;2024-01-16T09:12:17;1.40;99.90
6843;DHT22;3460;52.028;8.916;2024-01-16T09:14:44;1.50;99.90
6843;DHT22;3460;52.028;8.916;2024-01-16T09:17:12;1.40;99.90
6843;DHT22;3460;52.028;8.916;2024-01-16T09:19:39;1.50;99.90
6843;DHT22;3460;52.028;8.916;2024-01-16T09:22:06;1.50;99.90
6843;DHT22;3460;52.028;8.916;2024-01-16T09:24:33;1.50;99.90
6843;DHT22;3460;52.028;8.916;2024-01-16T09:26:59;1.60;99.90
6843;DHT22;3460;52.028;8.916;2024-01-16T09:29:26;1.50;99.90
6843;DHT22;3460;52.028;8.916;2024-01-16T09:31:53;1.40;99.90
6843;DHT22;3460;52.028;8.916;2024-01-16T09:34:21;1.50;99.90
6843;DHT22;3460;52.028;8.916;2024-01-16T09:36:48;1.50;99.90
6843;DHT22;3460;52.028;8.916;2024-01-16T09:39:15;1.50;99.90
6843;DHT22;3460;52.028;8.916;2024-01-16T09:41:42;1.50;99.90
6843;DHT22;3460;52.028;8.916;2024-01-16T09:44:09;1.40;99.90
6843;DHT22;3460;52.028;8.916;2024-01-16T09:46:38;1.40;99.90
6843;DHT22;3460;52.028;8.916;2024-01-16T09:49:05;1.40;99.90
6843;DHT22;3460;52.028;8.916;2024-01-16T09:51:33;1.40;99.90
6843;DHT22;3460;52.028;8.916;2024-01-16T09:54:00;1.40;99.90
6843;DHT22;3460;52.028;8.916;2024-01-16T09:56:32;1.50;99.90
6843;DHT22;3460;52.028;8.916;2024-01-16T09:59:05;1.50;99.90
6843;DHT22;3460;52.028;8.916;2024-01-16T10:01:33;1.50;99.90
6843;DHT22;3460;52.028;8.916;2024-01-16T10:04:00;1.50;99.90
6843;DHT22;3460;52.028;8.916;2024-01-16T10:06:27;1.40;99.90
6843;DHT22;3460;52.028;8.916;2024-01-16T10:08:55;1.50;99.90
6843;DHT22;3460;52.028;8.916;2024-01-16T10:11:22;1.50;99.90
6843;DHT22;3460;52.028;8.916;2024-01-16T10:13:49;1.50;99.90
6843;DHT22;3460;52.028;8.916;2024-01-16T10:16:16;1.60;99.90
6843;DHT22;3460;52.028;8.916;2024-01-16T10:18:43;1.50;99.90
6843;DHT22;3460;52.028;8.916;2024-01-16T10:21:20;1.60;99.90
6843;DHT22;3460;52.028;8.916;2024-01-16T10:23:49;1.70;99.90
6843;DHT22;3460;52.028;8.916;2024-01-16T10:26:17;1.70;99.90
6843;DHT22;3460;52.028;8.916;2024-01-16T10:28:44;1.60;99.90
6843;DHT22;3460;52.028;8.916;2024-01-16T10:31:12;1.60;99.90
6843;DHT22;3460;52.028;8.916;2024-01-16T10:33:40;1.60;99.90
6843;DHT22;3460;52.028;8.916;2024-01-16T10:36:08;1.60;99.90
6843;DHT22;3460;52.028;8.916;2024-01-16T10:38:36;1.60;99.90
6843;DHT22;3460;52.028;8.916;2024-01-16T10:41:09;1.50;99.90
6843;DHT22;3460;52.028;8.916;2024-01-16T10:43:37;1.60;99.90
6843;DHT22;3460;52.028;8.916;2024-01-16T10:46:11;1.60;99.90
6843;DHT22;3460;52.028;8.916;2024-01-16T10:48:40;1.50;99.90
6843;DHT22;3460;52.028;8.916;2024-01-16T10:51:08;1.50;99.90
6843;DHT22;3460;52.028;8.916;2024-01-16T10:53:41;1.50;99.90
6843;DHT22;3460;52.028;8.916;2024-01-16T10:56:10;1.60;99.90
6843;DHT22;3460;52.028;8.916;2024-01-16T10:58:40;1.50;99.90
6843;DHT22;3460;52.028;8.916;2024-01-16T11:01:11;1.60;99.90
6843;DHT22;3460;52.028;8.916;2024-01-16T11:03:41;1.50;99.90
6843;DHT22;3460;52.028;8.916;2024-01-16T11:06:10;1.50;99.90
6843;DHT22;3460;52.028;8.916;2024-01-16T11:08:39;1.50;99.90
6843;DHT22;3460;52.028;8.916;2024-01-16T11:11:07;1.50;99.90
6843;DHT22;3460;52.028;8.916;2024-01-16T11:13:35;1.50;99.90
6843;DHT22;3460;52.028;8.916;2024-01-16T11:16:04;1.60;99.90
6843;DHT22;3460;52.028;8.916;2024-01-16T11:18:33;1.60;99.90
6843;DHT22;3460;52.028;8.916;2024-01-16T11:21:00;1.60;99.90
6843;DHT22;3460;52.028;8.916;2024-01-16T11:23:27;1.60;99.90
6843;DHT22;3460;52.028;8.916;2024-01-16T11:25:54;1.60;99.90
6843;DHT22;3460;52.028;8.916;2024-01-16T11:28:27;1.70;99.90
6843;DHT22;3460;52.028;8.916;2024-01-16T11:30:55;1.60;99.90
6843;DHT22;3460;52.028;8.916;2024-01-16T11:33:44;1.60;99.90
6843;DHT22;3460;52.028;8.916;2024-01-16T11:36:42;1.60;99.90
6843;DHT22;3460;52.028;8.916;2024-01-16T11:39:11;1.70;99.90
6843;DHT22;3460;52.028;8.916;2024-01-16T11:41:51;1.70;99.90
6843;DHT22;3460;52.028;8.916;2024-01-16T11:44:36;1.60;99.90
6843;DHT22;3460;52.028;8.916;2024-01-16T11:47:03;1.50;99.90
6843;DHT22;3460;52.028;8.916;2024-01-16T11:49:32;1.50;99.90
6843;DHT22;3460;52.028;8.916;2024-01-16T11:51:59;1.50;99.90
6843;DHT22;3460;52.028;8.916;2024-01-16T11:54:26;1.50;99.90
6843;DHT22;3460;52.028;8.916;2024-01-16T11:57:20;1.50;99.90
6843;DHT22;3460;52.028;8.916;2024-01-16T11:59:59;1.50;99.90
6843;DHT22;3460;52.028;8.916;2024-01-16T12:02:49;1.50;99.90
6843;DHT22;3460;52.028;8.916;2024-01-16T12:05:19;1.50;99.90
6843;DHT22;3460;52.028;8.916;2024-01-16T12:07:47;1.50;99.90
6843;DHT22;3460;52.028;8.916;2024-01-16T12:10:15;1.50;99.90
6843;DHT22;3460;52.028;8.916;2024-01-16T12:12:42;1.60;99.90
6843;DHT22;3460;52.028;8.916;2024-01-16T12:15:13;1.60;99.90
6843;DHT22;3460;52.028;8.916;2024-01-16T12:17:54;1.50;99.90
6843;DHT22;3460;52.028;8.916;2024-01-16T12:20:23;1.40;99.90
6843;DHT22;3460;52.028;8.916;2024-01-16T12:22:55;1.30;99.90
6843;DHT22;3460;52.028;8.916;2024-01-16T12:25:22;1.40;99.90
6843;DHT22;3460;52.028;8.916;2024-01-16T12:27:55;1.40;99.90
6843;DHT22;3460;52.028;8.916;2024-01-16T12:30:23;1.40;99.90
6843;DHT22;3460;52.028;8.916;2024-01-16T12:32:50;1.40;99.90
6843;DHT22;3460;52.028;8.916;2024-01-16T12:35:23;1.40;99.90
6843;DHT22;3460;52.028;8.916;2024-01-16T12:38:00;1.40;99.90
6843;DHT22;3460;52.028;8.916;2024-01-16T12:40:27;1.40;99.90
6843;DHT22;3460;52.028;8.916;2024-01-16T12:42:54;1.40;63.40
6843;DHT22;3460;52.028;8.916;2024-01-16T12:45:21;1.40;99.90
6843;DHT22;3460;52.028;8.916;2024-01-16T12:47:52;1.30;99.90
6843;DHT22;3460;52.028;8.916;2024-01-16T12:50:20;1.30;99.90
6843;DHT22;3460;52.028;8.916;2024-01-16T12:52:49;1.30;99.90
6843;DHT22;3460;52.028;8.916;2024-01-16T12:55:16;1.30;99.90
6843;DHT22;3460;52.028;8.916;2024-01-16T12:57:44;1.20;99.90
6843;DHT22;3460;52.028;8.916;2024-01-16T13:00:22;1.20;99.90
6843;DHT22;3460;52.028;8.916;2024-01-16T13:02:49;1.30;99.90
6843;DHT22;3460;52.028;8.916;2024-01-16T13:05:16;1.30;99.90
6843;DHT22;3460;52.028;8.916;2024-01-16T13:07:44;1.30;99.90
6843;DHT22;3460;52.028;8.916;2024-01-16T13:10:13;1.30;99.90
6843;DHT22;3460;52.028;8.916;2024-01-16T13:12:41;1.30;99.90
6843;DHT22;3460;52.028;8.916;2024-01-16T13:15:08;1.30;99.90
6843;DHT22;3460;52.028;8.916;2024-01-16T13:17:36;1.40;99.90
6843;DHT22;3460;52.028;8.916;2024-01-16T13:20:04;1.30;99.90
6843;DHT22;3460;52.028;8.916;2024-01-16T13:22:35;1.30;99.90
6843;DHT22;3460;52.028;8.916;2024-01-16T13:25:02;1.20;99.90
6843;DHT22;3460;52.028;8.916;2024-01-16T13:27:32;1.10;99.90
6843;DHT22;3460;52.028;8.916;2024-01-16T13:29:59;1.10;99.90
6843;DHT22;3460;52.028;8.916;2024-01-16T13:32:26;1.10;99.90
6843;DHT22;3460;52.028;8.916;2024-01-16T13:34:53;1.20;99.90
6843;DHT22;3460;52.028;8.916;2024-01-16T13:37:21;1.10;99.90
6843;DHT22;3460;52.028;8.916;2024-01-16T13:39:48;1.10;99.90
6843;DHT22;3460;52.028;8.916;2024-01-16T13:42:15;1.10;99.90
6843;DHT22;3460;52.028;8.916;2024-01-16T13:44:46;1.10;99.90
6843;DHT22;3460;52.028;8.916;2024-01-16T13:47:15;1.10;99.90
6843;DHT22;3460;52.028;8.916;2024-01-16T13:49:41;1.20;99.90
6843;DHT22;3460;52.028;8.916;2024-01-16T13:52:09;1.20;99.90
6843;DHT22;3460;52.028;8.916;2024-01-16T13:54:37;1.20;99.90
6843;DHT22;3460;52.028;8.916;2024-01-16T13:57:05;1.20;99.90
6843;DHT22;3460;52.028;8.916;2024-01-16T13:59:32;1.30;99.90
6843;DHT22;3460;52.028;8.916;2024-01-16T14:02:01;1.20;99.90
6843;DHT22;3460;52.028;8.916;2024-01-16T14:04:28;1.20;99.90
6843;DHT22;3460;52.028;8.916;2024-01-16T14:06:55;1.20;99.90
6843;DHT22;3460;52.028;8.916;2024-01-16T14:09:22;1.20;99.90
6843;DHT22;3460;52.028;8.916;2024-01-16T14:11:48;1.20;99.90
6843;DHT22;3460;52.028;8.916;2024-01-16T14:14:15;1.30;99.90
6843;DHT22;3460;52.028;8.916;2024-01-16T14:16:42;1.30;80.00
6843;DHT22;3460;52.028;8.916;2024-01-16T14:19:11;1.30;99.90
6843;DHT22;3460;52.028;8.916;2024-01-16T14:21:38;1.20;99.90
6843;DHT22;3460;52.028;8.916;2024-01-16T14:24:05;1.20;99.90
6843;DHT22;3460;52.028;8.916;2024-01-16T14:26:32;1.10;99.90
6843;DHT22;3460;52.028;8.916;2024-01-16T14:28:59;1.00;99.90
6843;DHT22;3460;52.028;8.916;2024-01-16T14:31:27;1.00;99.90
6843;DHT22;3460;52.028;8.916;2024-01-16T14:33:53;1.00;99.90
6843;DHT22;3460;52.028;8.916;2024-01-16T14:36:21;1.00;99.90
6843;DHT22;3460;52.028;8.916;2024-01-16T14:38:49;1.10;99.90
6843;DHT22;3460;52.028;8.916;2024-01-16T14:41:16;1.10;99.90
6843;DHT22;3460;52.028;8.916;2024-01-16T14:43:43;1.10;99.90
6843;DHT22;3460;52.028;8.916;2024-01-16T14:46:11;1.10;99.90
6843;DHT22;3460;52.028;8.916;2024-01-16T14:48:38;1.10;99.90
6843;DHT22;3460;52.028;8.916;2024-01-16T14:51:04;1.10;99.90
6843;DHT22;3460;52.028;8.916;2024-01-16T14:53:33;1.00;99.90
6843;DHT22;3460;52.028;8.916;2024-01-16T14:55:59;1.10;99.90
6843;DHT22;3460;52.028;8.916;2024-01-16T14:58:26;1.10;99.90
6843;DHT22;3460;52.028;8.916;2024-01-16T15:00:53;1.20;99.90
6843;DHT22;3460;52.028;8.916;2024-01-16T15:03:21;1.10;99.90
6843;DHT22;3460;52.028;8.916;2024-01-16T15:05:48;1.00;99.90
6843;DHT22;3460;52.028;8.916;2024-01-16T15:08:15;1.00;99.90
6843;DHT22;3460;52.028;8.916;2024-01-16T15:10:43;1.00;99.90
6843;DHT22;3460;52.028;8.916;2024-01-16T15:13:10;1.00;99.90
6843;DHT22;3460;52.028;8.916;2024-01-16T15:15:37;1.00;99.90
6843;DHT22;3460;52.028;8.916;2024-01-16T15:18:04;1.00;99.90
6843;DHT22;3460;52.028;8.916;2024-01-16T15:20:31;1.00;99.90
6843;DHT22;3460;52.028;8.916;2024-01-16T15:22:57;1.10;99.90
6843;DHT22;3460;52.028;8.916;2024-01-16T15:25:24;1.00;99.90
6843;DHT22;3460;52.028;8.916;2024-01-16T15:27:52;1.00;99.90
6843;DHT22;3460;52.028;8.916;2024-01-16T15:30:19;1.10;99.90
6843;DHT22;3460;52.028;8.916;2024-01-16T15:32:47;1.00;99.90
6843;DHT22;3460;52.028;8.916;2024-01-16T15:35:14;0.90;99.90
6843;DHT22;3460;52.028;8.916;2024-01-16T15:37:41;0.90;99.90
6843;DHT22;3460;52.028;8.916;2024-01-16T15:40:10;0.90;99.90
6843;DHT22;3460;52.028;8.916;2024-01-16T15:42:38;0.90;99.90
6843;DHT22;3460;52.028;8.916;2024-01-16T15:45:07;0.90;99.90
6843;DHT22;3460;52.028;8.916;2024-01-16T15:47:35;0.90;99.90
6843;DHT22;3460;52.028;8.916;2024-01-16T15:50:02;0.90;99.90
6843;DHT22;3460;52.028;8.916;2024-01-16T15:52:30;0.90;99.90
6843;DHT22;3460;52.028;8.916;2024-01-16T15:54:56;0.90;99.90
6843;DHT22;3460;52.028;8.916;2024-01-16T15:57:23;1.00;99.90
6843;DHT22;3460;52.028;8.916;2024-01-16T15:59:50;0.90;99.90
6843;DHT22;3460;52.028;8.916;2024-01-16T16:02:18;1.00;99.90
6843;DHT22;3460;52.028;8.916;2024-01-16T16:04:45;0.90;99.90
6843;DHT22;3460;52.028;8.916;2024-01-16T16:07:12;1.00;99.90
6843;DHT22;3460;52.028;8.916;2024-01-16T16:09:40;0.90;99.90
6843;DHT22;3460;52.028;8.916;2024-01-16T16:12:08;0.90;99.90
6843;DHT22;3460;52.028;8.916;2024-01-16T16:14:34;1.00;21.00
6843;DHT22;3460;52.028;8.916;2024-01-16T16:17:04;1.10;12.80
6843;DHT22;3460;52.028;8.916;2024-01-16T16:19:35;1.00;1.00
6843;DHT22;3460;52.028;8.916;2024-01-16T16:22:02;1.10;1.00